Main page
METAR-TAF:

Airports :

Liège, Belgium

Liège Airport

latitude: 50-39N, longitude: 005-27E, elevation: 186 m

Current weather observation

The report was made 15 minutes ago, at 21:20 UTC
Wind 3 kt from the West
Temperature 19°C
Humidity 73%
Pressure 1013 hPa
Visibility 10 km or more

METAR: EBLG 292120Z AUTO 26003KT 9999 // FEW036/// BKN040/// 19/14 Q1013

Time: 23:35 (21:35 UTC)

Forecast

The report was made 4 hours and 5 minutes ago, at 17:30 UTC
Forecast valid from 29 at 18 UTC to 30 at 24 UTC
Wind 9 kt from the West
Visibility 10 km or more
Few clouds at a height of 4000 ft
Probability 30% :
Temporary
from 30 at 05 UTC to 30 at 07 UTC
Broken clouds at a height of 1200 ft

TAF: EBLG 291730Z 2918/3024 26009KT 9999 FEW040 PROB30 TEMPO 3005/3007 BKN012

METAR-TAF

Weather observations and forecasts of more than 4000 airports (METAR and TAF reports).

The available stations are represented by yellow and red dots on the map.

Hover mouse over dot to see the name of the station.

Then click to see weather observations and forecasts.

To change the map : click on the green buttons with a black cross to zoom in, on the green button with a dash to zoom out, or on the green arrows for adjacent maps.


METAR-TAF: